Time;durP1;ratioP1;P1;durP2;ratioP2;P2;SDS_P1;SDS_P2;PMS_P1;PMS_P2;Temp;Humidity;BMP_temperature;BMP_pressure;BME280_temperature;BME280_humidity;BME280_pressure;Samples;Min_cycle;Max_cycle;Signal;HPM_P1;HPM_P2
2023/03/15 00:00:41;;;;;;;17.83;4.23;;;;;;;;;;5075618;28;20170;-71
2023/03/15 00:03:07;;;;;;;12.23;4.20;;;;;;;;;;5075002;28;20756;-70
2023/03/15 00:05:33;;;;;;;13.40;4.13;;;;;;;;;;5074900;28;20177;-72
2023/03/15 00:07:59;;;;;;;14.60;3.93;;;;;;;;;;5074767;28;20174;-71
2023/03/15 00:10:25;;;;;;;15.50;4.97;;;;;;;;;;5075052;28;20675;-70
2023/03/15 00:12:51;;;;;;;11.47;4.57;;;;;;;;;;5056408;28;20213;-71
2023/03/15 00:15:17;;;;;;;15.37;4.00;;;;;;;;;;5057226;28;20215;-71
2023/03/15 00:17:43;;;;;;;10.90;3.67;;;;;;;;;;5074718;28;20178;-71
2023/03/15 00:20:10;;;;;;;5.73;3.40;;;;;;;;;;5056736;28;20200;-71
2023/03/15 00:22:36;;;;;;;4.97;2.93;;;;;;;;;;5057644;28;20205;-71
2023/03/15 00:25:02;;;;;;;13.30;3.83;;;;;;;;;;5074312;28;20170;-70
2023/03/15 00:27:28;;;;;;;8.23;3.57;;;;;;;;;;5074633;28;20231;-72
2023/03/15 00:29:54;;;;;;;9.73;4.03;;;;;;;;;;5057472;28;20178;-72
2023/03/15 00:32:20;;;;;;;10.83;4.87;;;;;;;;;;5074921;28;20595;-72
2023/03/15 00:34:48;;;;;;;10.00;4.73;;;;;;;;;;5056612;28;20671;-71
2023/03/15 00:37:18;;;;;;;13.90;7.13;;;;;;;;;;5074652;28;20702;-71
2023/03/15 00:39:45;;;;;;;15.00;6.97;;;;;;;;;;5075041;28;20154;-70
2023/03/15 00:42:14;;;;;;;13.50;6.97;;;;;;;;;;5074210;28;20495;-71
2023/03/15 00:44:40;;;;;;;9.70;5.87;;;;;;;;;;5074174;28;20248;-71
2023/03/15 00:47:06;;;;;;;12.83;6.80;;;;;;;;;;5056255;28;20220;-70
2023/03/15 00:49:32;;;;;;;12.40;7.00;;;;;;;;;;5074043;28;20252;-69
2023/03/15 00:51:58;;;;;;;9.53;6.37;;;;;;;;;;5074434;28;20200;-69
2023/03/15 00:54:24;;;;;;;9.17;6.30;;;;;;;;;;5074552;28;20428;-70
2023/03/15 00:56:50;;;;;;;11.33;7.07;;;;;;;;;;5074831;28;20206;-69
2023/03/15 00:59:16;;;;;;;11.30;7.37;;;;;;;;;;5074936;28;20180;-70
2023/03/15 01:01:43;;;;;;;12.80;8.50;;;;;;;;;;5075109;28;20177;-69
2023/03/15 01:04:13;;;;;;;14.63;8.30;;;;;;;;;;5074816;28;20205;-70
2023/03/15 01:06:41;;;;;;;13.37;8.37;;;;;;;;;;5074697;28;20174;-70
2023/03/15 01:09:07;;;;;;;10.70;8.00;;;;;;;;;;5057156;28;20471;-69
2023/03/15 01:11:33;;;;;;;12.07;9.13;;;;;;;;;;5075157;28;20880;-71
2023/03/15 01:13:59;;;;;;;14.17;8.97;;;;;;;;;;5056133;28;20443;-70
2023/03/15 01:16:26;;;;;;;12.57;9.60;;;;;;;;;;5074969;28;20262;-71
2023/03/15 01:18:52;;;;;;;12.60;9.40;;;;;;;;;;5074205;28;20491;-70
2023/03/15 01:21:18;;;;;;;16.20;10.47;;;;;;;;;;5074793;28;20408;-70
2023/03/15 01:23:44;;;;;;;11.73;9.27;;;;;;;;;;5074870;28;20815;-70
2023/03/15 01:26:11;;;;;;;13.23;8.90;;;;;;;;;;5074836;28;20408;-70
2023/03/15 01:28:37;;;;;;;14.17;9.90;;;;;;;;;;5074368;28;20936;-71
2023/03/15 01:31:03;;;;;;;15.87;9.27;;;;;;;;;;5074822;28;20420;-71
2023/03/15 01:33:29;;;;;;;15.37;9.83;;;;;;;;;;5056774;28;20206;-71
2023/03/15 01:36:01;;;;;;;13.47;10.40;;;;;;;;;;5076636;28;20685;-71
2023/03/15 01:38:28;;;;;;;15.33;9.53;;;;;;;;;;5078787;28;20261;-70
2023/03/15 01:40:54;;;;;;;10.30;8.87;;;;;;;;;;5078621;28;20890;-71
2023/03/15 01:43:21;;;;;;;13.13;8.60;;;;;;;;;;5078252;28;20460;-71
2023/03/15 01:45:56;;;;;;;11.27;7.73;;;;;;;;;;5078106;28;20635;-71
2023/03/15 01:48:24;;;;;;;11.90;8.40;;;;;;;;;;5077716;28;20412;-72
2023/03/15 01:50:50;;;;;;;14.60;7.80;;;;;;;;;;5059618;28;20422;-72
2023/03/15 01:53:17;;;;;;;11.33;7.80;;;;;;;;;;5059328;28;20452;-70
2023/03/15 01:55:43;;;;;;;10.77;7.07;;;;;;;;;;5059619;28;20965;-71
2023/03/15 01:58:09;;;;;;;11.27;6.87;;;;;;;;;;5078043;28;20423;-72
2023/03/15 02:00:36;;;;;;;10.40;6.20;;;;;;;;;;5078274;28;20185;-71
2023/03/15 02:03:07;;;;;;;9.80;6.57;;;;;;;;;;5060143;28;20270;-72
2023/03/15 02:05:35;;;;;;;10.53;6.37;;;;;;;;;;5089992;23;20548;-70
2023/03/15 02:08:02;;;;;;;9.60;6.93;;;;;;;;;;5055564;28;20406;-70
2023/03/15 02:10:33;;;;;;;9.50;6.40;;;;;;;;;;5057672;28;20185;-69
2023/03/15 02:12:59;;;;;;;13.37;7.03;;;;;;;;;;5057196;28;20400;-69
2023/03/15 02:15:25;;;;;;;9.37;6.87;;;;;;;;;;5057388;28;20210;-68
2023/03/15 02:17:51;;;;;;;10.17;7.60;;;;;;;;;;5057219;28;20708;-69
2023/03/15 02:20:26;;;;;;;7.73;6.93;;;;;;;;;;5057233;28;20206;-69
2023/03/15 02:22:59;;;;;;;11.10;7.33;;;;;;;;;;5039844;28;20166;-70
2023/03/15 02:25:39;;;;;;;10.73;7.73;;;;;;;;;;5057249;28;20471;-68
2023/03/15 02:28:06;;;;;;;10.77;7.70;;;;;;;;;;5056807;28;20613;-69
2023/03/15 02:30:32;;;;;;;11.70;8.50;;;;;;;;;;5057458;28;20189;-69
2023/03/15 02:32:59;;;;;;;12.83;9.37;;;;;;;;;;5057384;28;20250;-69
2023/03/15 02:35:26;;;;;;;17.20;10.57;;;;;;;;;;5056708;28;20681;-70
2023/03/15 02:37:52;;;;;;;20.73;14.20;;;;;;;;;;5038559;28;20303;-69
2023/03/15 02:40:19;;;;;;;19.50;16.20;;;;;;;;;;5056228;28;20470;-70
2023/03/15 02:42:46;;;;;;;22.00;16.30;;;;;;;;;;5056355;28;20210;-70
2023/03/15 02:45:13;;;;;;;18.97;14.63;;;;;;;;;;5057039;28;20199;-69
2023/03/15 02:47:39;;;;;;;19.63;13.30;;;;;;;;;;5055976;28;20499;-69
2023/03/15 02:50:07;;;;;;;19.47;11.93;;;;;;;;;;5056520;28;20179;-69
2023/03/15 02:52:33;;;;;;;14.53;10.77;;;;;;;;;;5056091;28;20409;-70
2023/03/15 02:55:00;;;;;;;13.73;9.57;;;;;;;;;;5056072;28;20201;-69
2023/03/15 02:57:27;;;;;;;12.47;10.47;;;;;;;;;;5056907;28;20171;-70
2023/03/15 02:59:53;;;;;;;9.47;8.50;;;;;;;;;;5037744;28;20179;-70
2023/03/15 03:02:19;;;;;;;13.37;9.23;;;;;;;;;;5037101;28;20425;-71
2023/03/15 03:04:46;;;;;;;10.47;8.10;;;;;;;;;;5054762;28;20961;-71
2023/03/15 03:07:12;;;;;;;10.00;7.37;;;;;;;;;;5055686;28;20621;-70
2023/03/15 03:09:38;;;;;;;7.47;6.67;;;;;;;;;;5055316;28;20424;-71
2023/03/15 03:12:04;;;;;;;6.77;5.50;;;;;;;;;;5037136;28;20186;-71
2023/03/15 03:14:30;;;;;;;5.67;4.70;;;;;;;;;;5054798;28;20716;-70
2023/03/15 03:16:56;;;;;;;4.97;4.10;;;;;;;;;;5055085;28;20524;-69
2023/03/15 03:19:25;;;;;;;4.43;3.67;;;;;;;;;;5055037;28;20175;-71
2023/03/15 03:21:55;;;;;;;5.57;3.80;;;;;;;;;;5054883;28;20412;-71
2023/03/15 03:24:24;;;;;;;5.40;4.20;;;;;;;;;;5054640;28;20413;-70
2023/03/15 03:26:50;;;;;;;4.93;4.23;;;;;;;;;;5036948;28;20418;-70
2023/03/15 03:29:16;;;;;;;6.03;5.40;;;;;;;;;;5054773;28;20416;-71
2023/03/15 03:31:42;;;;;;;6.37;5.77;;;;;;;;;;5054748;28;20553;-70
2023/03/15 03:34:09;;;;;;;6.77;5.47;;;;;;;;;;5054690;28;20175;-70
2023/03/15 03:36:35;;;;;;;9.00;6.23;;;;;;;;;;5036484;28;20466;-69
2023/03/15 03:39:02;;;;;;;8.77;6.70;;;;;;;;;;5054310;28;20405;-70
2023/03/15 03:41:27;;;;;;;8.70;6.40;;;;;;;;;;5054378;28;20409;-71
2023/03/15 03:43:53;;;;;;;10.00;7.57;;;;;;;;;;5054262;28;20469;-71
2023/03/15 03:46:19;;;;;;;9.27;7.07;;;;;;;;;;5054359;28;20263;-70
2023/03/15 03:48:45;;;;;;;8.57;6.73;;;;;;;;;;5054598;28;20261;-70
2023/03/15 03:51:11;;;;;;;10.80;7.00;;;;;;;;;;5054434;28;20178;-70
2023/03/15 03:53:37;;;;;;;8.00;6.17;;;;;;;;;;5054631;28;20182;-71
2023/03/15 03:56:04;;;;;;;10.27;6.63;;;;;;;;;;5054213;28;20699;-71
2023/03/15 03:58:31;;;;;;;8.07;6.53;;;;;;;;;;5054023;28;20633;-70
2023/03/15 04:00:56;;;;;;;7.13;6.40;;;;;;;;;;5036386;28;20496;-69
2023/03/15 04:03:28;;;;;;;8.80;6.33;;;;;;;;;;5054308;28;20441;-70
2023/03/15 04:05:55;;;;;;;9.07;7.53;;;;;;;;;;5036009;28;20228;-71
2023/03/15 04:08:21;;;;;;;7.93;7.13;;;;;;;;;;5054452;28;20895;-69
2023/03/15 04:10:52;;;;;;;8.80;7.57;;;;;;;;;;5054725;28;20405;-68
2023/03/15 04:13:18;;;;;;;10.87;7.80;;;;;;;;;;5054956;28;20175;-69
2023/03/15 04:15:43;;;;;;;8.70;7.87;;;;;;;;;;5036087;28;20557;-71
2023/03/15 04:18:09;;;;;;;9.33;8.10;;;;;;;;;;5053961;28;20240;-70
2023/03/15 04:20:35;;;;;;;9.53;8.37;;;;;;;;;;5054306;28;20228;-69
2023/03/15 04:23:01;;;;;;;10.33;8.73;;;;;;;;;;5054265;28;20178;-70
2023/03/15 04:25:27;;;;;;;11.03;8.80;;;;;;;;;;5053915;28;20199;-69
2023/03/15 04:28:01;;;;;;;12.37;9.00;;;;;;;;;;5036281;28;20182;-70
2023/03/15 04:30:28;;;;;;;11.53;9.90;;;;;;;;;;5054639;28;20159;-69
2023/03/15 04:32:57;;;;;;;10.60;8.90;;;;;;;;;;5054317;28;20921;-70
2023/03/15 04:35:27;;;;;;;11.10;9.10;;;;;;;;;;5036350;28;20210;-73
2023/03/15 04:37:54;;;;;;;13.30;9.60;;;;;;;;;;5054078;28;20901;-70
2023/03/15 04:40:22;;;;;;;11.60;9.20;;;;;;;;;;5054455;28;20409;-72
2023/03/15 04:42:49;;;;;;;11.60;9.53;;;;;;;;;;5054616;28;20405;-71
2023/03/15 04:45:15;;;;;;;10.03;8.93;;;;;;;;;;5054418;28;20198;-70
2023/03/15 04:47:41;;;;;;;10.33;9.30;;;;;;;;;;5036423;28;20416;-69
2023/03/15 04:50:07;;;;;;;10.77;9.13;;;;;;;;;;5036524;28;20565;-70
2023/03/15 04:52:33;;;;;;;12.10;9.83;;;;;;;;;;5036586;28;20718;-70
2023/03/15 04:54:59;;;;;;;12.13;10.57;;;;;;;;;;5054211;28;20198;-69
2023/03/15 04:57:25;;;;;;;14.13;10.63;;;;;;;;;;5054498;28;20202;-70
2023/03/15 04:59:51;;;;;;;18.83;11.10;;;;;;;;;;5036381;28;20269;-69
2023/03/15 05:02:17;;;;;;;14.97;12.23;;;;;;;;;;5036334;28;20455;-70
2023/03/15 05:04:43;;;;;;;17.87;12.63;;;;;;;;;;5054163;28;20210;-69
2023/03/15 05:07:09;;;;;;;16.43;12.97;;;;;;;;;;5054432;28;20621;-69
2023/03/15 05:09:37;;;;;;;16.90;13.13;;;;;;;;;;5054396;28;20625;-71
2023/03/15 05:12:06;;;;;;;20.93;13.50;;;;;;;;;;5058141;28;20177;-69
2023/03/15 05:14:32;;;;;;;20.13;13.63;;;;;;;;;;5040194;28;20927;-69
2023/03/15 05:17:00;;;;;;;24.67;15.97;;;;;;;;;;5039637;28;20835;-68
2023/03/15 05:19:26;;;;;;;19.20;15.27;;;;;;;;;;5039373;28;20825;-70
2023/03/15 05:21:53;;;;;;;27.03;18.70;;;;;;;;;;5057265;28;20420;-72
2023/03/15 05:24:19;;;;;;;24.33;18.90;;;;;;;;;;5039245;28;20183;-68
2023/03/15 05:26:45;;;;;;;26.77;20.07;;;;;;;;;;5039686;28;20497;-69
2023/03/15 05:29:14;;;;;;;26.90;21.80;;;;;;;;;;5057453;28;20175;-69
2023/03/15 05:31:40;;;;;;;28.77;21.47;;;;;;;;;;5039502;28;20182;-70
2023/03/15 05:34:07;;;;;;;29.90;22.63;;;;;;;;;;5057584;28;20419;-70
2023/03/15 05:36:33;;;;;;;30.47;24.60;;;;;;;;;;5039525;28;20301;-70
2023/03/15 05:39:01;;;;;;;35.10;24.97;;;;;;;;;;5057373;28;20599;-69
2023/03/15 05:41:27;;;;;;;33.20;24.27;;;;;;;;;;5039518;28;20417;-70
2023/03/15 05:43:53;;;;;;;32.63;23.30;;;;;;;;;;5057932;28;20415;-71
2023/03/15 05:46:21;;;;;;;36.23;24.83;;;;;;;;;;5057127;28;20206;-71
2023/03/15 05:48:47;;;;;;;33.30;23.67;;;;;;;;;;5057306;28;20184;-71
2023/03/15 05:51:13;;;;;;;35.23;26.37;;;;;;;;;;5039602;28;20413;-70
2023/03/15 05:53:39;;;;;;;32.23;25.47;;;;;;;;;;5057535;28;20178;-70
2023/03/15 05:56:05;;;;;;;36.70;25.93;;;;;;;;;;5061532;28;20225;-70
2023/03/15 05:58:31;;;;;;;37.63;28.20;;;;;;;;;;5058315;28;20175;-69
2023/03/15 06:00:57;;;;;;;35.80;25.77;;;;;;;;;;5058622;28;20416;-69
2023/03/15 06:03:23;;;;;;;35.70;26.13;;;;;;;;;;5057397;28;20174;-70
2023/03/15 06:05:50;;;;;;;36.77;26.20;;;;;;;;;;5058994;28;20727;-70
2023/03/15 06:08:16;;;;;;;31.70;24.63;;;;;;;;;;5058410;28;20260;-69
2023/03/15 06:10:42;;;;;;;37.47;24.60;;;;;;;;;;5064077;28;20413;-69
2023/03/15 06:13:08;;;;;;;33.07;24.70;;;;;;;;;;5066864;28;20182;-69
2023/03/15 06:15:34;;;;;;;36.20;24.23;;;;;;;;;;5049320;28;21085;-70
2023/03/15 06:18:00;;;;;;;33.43;25.03;;;;;;;;;;5067717;28;20166;-69
2023/03/15 06:20:26;;;;;;;38.47;25.93;;;;;;;;;;5065894;28;20185;-70
2023/03/15 06:22:52;;;;;;;35.93;25.50;;;;;;;;;;5055918;28;20178;-70
2023/03/15 06:25:18;;;;;;;35.17;26.30;;;;;;;;;;5057220;28;20230;-69
2023/03/15 06:27:44;;;;;;;36.77;25.63;;;;;;;;;;5056715;28;20186;-69
2023/03/15 06:30:10;;;;;;;34.73;25.67;;;;;;;;;;5047212;28;20208;-70
2023/03/15 06:32:36;;;;;;;38.10;27.27;;;;;;;;;;5062817;28;20171;-70
2023/03/15 06:35:04;;;;;;;34.83;24.03;;;;;;;;;;5056772;28;20198;-70
2023/03/15 06:37:30;;;;;;;33.47;24.17;;;;;;;;;;5057229;28;20433;-68
2023/03/15 06:39:56;;;;;;;35.77;24.30;;;;;;;;;;5057101;28;20179;-69
2023/03/15 06:42:21;;;;;;;29.43;21.10;;;;;;;;;;5057431;28;20636;-69
2023/03/15 06:44:47;;;;;;;32.97;23.10;;;;;;;;;;5056611;28;20194;-69
2023/03/15 06:47:13;;;;;;;34.17;22.90;;;;;;;;;;5038751;28;20530;-69
2023/03/15 06:49:39;;;;;;;36.17;23.57;;;;;;;;;;5056755;28;20193;-69
2023/03/15 06:52:06;;;;;;;35.27;23.83;;;;;;;;;;5038974;28;20640;-68
2023/03/15 06:54:32;;;;;;;31.70;22.50;;;;;;;;;;5039070;28;20232;-68
2023/03/15 06:56:58;;;;;;;31.37;22.93;;;;;;;;;;5057157;28;20209;-70
2023/03/15 06:59:24;;;;;;;29.97;21.87;;;;;;;;;;5056285;28;20179;-68
2023/03/15 07:01:50;;;;;;;30.30;22.03;;;;;;;;;;5039155;28;20209;-69
2023/03/15 07:04:16;;;;;;;34.00;22.13;;;;;;;;;;5039558;28;20178;-69
2023/03/15 07:06:42;;;;;;;29.00;21.40;;;;;;;;;;5056045;28;20201;-68
2023/03/15 07:09:08;;;;;;;30.00;20.73;;;;;;;;;;5038697;28;20190;-68
2023/03/15 07:11:34;;;;;;;27.23;20.00;;;;;;;;;;5038240;28;20182;-67
2023/03/15 07:14:00;;;;;;;27.50;20.03;;;;;;;;;;5055996;28;20188;-68
2023/03/15 07:16:26;;;;;;;25.57;19.57;;;;;;;;;;5038110;28;20237;-67
2023/03/15 07:18:54;;;;;;;28.77;18.10;;;;;;;;;;5056208;28;20270;-68
2023/03/15 07:21:20;;;;;;;25.77;16.20;;;;;;;;;;5055906;28;20189;-69
2023/03/15 07:23:46;;;;;;;29.93;17.73;;;;;;;;;;5056176;28;20170;-69
2023/03/15 07:26:12;;;;;;;28.10;18.07;;;;;;;;;;5037679;28;20293;-69
2023/03/15 07:28:38;;;;;;;21.50;17.10;;;;;;;;;;5055636;28;20185;-68
2023/03/15 07:31:05;;;;;;;25.37;18.13;;;;;;;;;;5055611;28;20257;-69
2023/03/15 07:33:31;;;;;;;25.37;15.57;;;;;;;;;;5055151;28;20192;-68
2023/03/15 07:35:57;;;;;;;20.73;15.27;;;;;;;;;;5055383;28;20209;-68
2023/03/15 07:38:25;;;;;;;23.00;16.07;;;;;;;;;;5055413;28;20183;-68
2023/03/15 07:40:51;;;;;;;22.20;17.07;;;;;;;;;;5037633;28;20175;-67
2023/03/15 07:43:18;;;;;;;19.20;14.00;;;;;;;;;;5037641;28;20297;-68
2023/03/15 07:45:44;;;;;;;23.97;15.00;;;;;;;;;;5055273;28;20225;-68
2023/03/15 07:48:10;;;;;;;18.90;14.47;;;;;;;;;;5055349;28;20637;-68
2023/03/15 07:50:36;;;;;;;17.60;14.73;;;;;;;;;;5055956;28;20182;-67
2023/03/15 07:53:05;;;;;;;20.07;15.03;;;;;;;;;;5055170;28;20178;-67
2023/03/15 07:55:32;;;;;;;21.77;13.73;;;;;;;;;;5055491;28;20214;-67
2023/03/15 07:57:58;;;;;;;21.13;14.83;;;;;;;;;;5055480;28;20197;-69
2023/03/15 08:00:24;;;;;;;20.77;15.13;;;;;;;;;;5055112;28;20179;-68
2023/03/15 08:02:50;;;;;;;20.67;14.60;;;;;;;;;;5036903;28;20194;-68
2023/03/15 08:05:19;;;;;;;16.67;14.53;;;;;;;;;;5055398;28;20206;-67
2023/03/15 08:07:45;;;;;;;21.53;14.27;;;;;;;;;;5037291;28;20186;-69
2023/03/15 08:10:12;;;;;;;25.03;13.00;;;;;;;;;;5054786;28;20712;-68
2023/03/15 08:12:39;;;;;;;22.70;13.70;;;;;;;;;;5054696;28;20175;-69
2023/03/15 08:15:05;;;;;;;17.27;13.50;;;;;;;;;;5036850;28;20194;-68
2023/03/15 08:17:31;;;;;;;16.80;11.77;;;;;;;;;;5054580;28;20260;-70
2023/03/15 08:19:57;;;;;;;16.20;11.87;;;;;;;;;;5055681;28;20178;-69
2023/03/15 08:22:23;;;;;;;23.33;12.87;;;;;;;;;;5055112;28;20174;-68
2023/03/15 08:24:52;;;;;;;17.77;12.60;;;;;;;;;;5054793;28;20204;-68
2023/03/15 08:27:18;;;;;;;17.80;13.10;;;;;;;;;;5054196;28;20174;-69
2023/03/15 08:29:43;;;;;;;17.77;11.13;;;;;;;;;;5054619;28;20178;-69
2023/03/15 08:32:10;;;;;;;15.57;10.77;;;;;;;;;;5036693;28;20186;-66
2023/03/15 08:34:36;;;;;;;15.10;11.13;;;;;;;;;;5036815;28;20186;-68
2023/03/15 08:37:02;;;;;;;15.10;11.47;;;;;;;;;;5054650;28;20203;-67
2023/03/15 08:39:28;;;;;;;22.00;12.37;;;;;;;;;;5036738;28;20182;-66
2023/03/15 08:41:54;;;;;;;21.83;11.53;;;;;;;;;;5055121;28;20174;-67
2023/03/15 08:44:20;;;;;;;16.07;11.20;;;;;;;;;;5036597;28;20186;-68
2023/03/15 08:46:46;;;;;;;19.30;11.03;;;;;;;;;;5036495;28;20191;-67
2023/03/15 08:49:12;;;;;;;14.47;9.87;;;;;;;;;;5055062;28;20186;-67
2023/03/15 08:51:38;;;;;;;15.80;10.73;;;;;;;;;;5055184;28;20235;-68
2023/03/15 08:54:04;;;;;;;20.23;11.53;;;;;;;;;;5054752;28;20222;-67
2023/03/15 08:56:31;;;;;;;18.43;12.07;;;;;;;;;;5053991;28;20210;-66
2023/03/15 08:58:57;;;;;;;16.83;11.10;;;;;;;;;;5036339;28;20186;-65
2023/03/15 09:01:23;;;;;;;12.43;9.17;;;;;;;;;;5054464;28;20181;-64
2023/03/15 09:03:50;;;;;;;14.77;9.70;;;;;;;;;;5036282;28;20202;-65
2023/03/15 09:06:16;;;;;;;15.43;9.87;;;;;;;;;;5036332;28;20224;-72
2023/03/15 09:08:42;;;;;;;16.67;11.00;;;;;;;;;;5037071;28;20190;-67
2023/03/15 09:11:09;;;;;;;18.20;10.83;;;;;;;;;;5054890;28;20182;-66
2023/03/15 09:13:35;;;;;;;12.90;9.40;;;;;;;;;;5055224;28;20629;-67
2023/03/15 09:16:02;;;;;;;14.23;9.53;;;;;;;;;;5054500;28;20209;-67
2023/03/15 09:18:28;;;;;;;15.27;9.80;;;;;;;;;;5036472;28;20224;-68
2023/03/15 09:20:54;;;;;;;15.57;9.47;;;;;;;;;;5054884;28;20179;-67
2023/03/15 09:23:20;;;;;;;16.63;9.50;;;;;;;;;;5036841;28;20183;-68
2023/03/15 09:25:46;;;;;;;12.13;9.70;;;;;;;;;;5054601;28;20285;-66
2023/03/15 09:28:12;;;;;;;13.70;8.93;;;;;;;;;;5036352;28;20292;-67
2023/03/15 09:30:39;;;;;;;14.77;10.40;;;;;;;;;;5054106;28;20186;-68
2023/03/15 09:33:06;;;;;;;15.67;9.53;;;;;;;;;;5053937;28;20178;-67
2023/03/15 09:35:32;;;;;;;15.83;9.73;;;;;;;;;;5054261;28;20213;-67
2023/03/15 09:37:58;;;;;;;13.43;9.53;;;;;;;;;;5054124;28;20227;-68
2023/03/15 09:40:26;;;;;;;15.03;9.67;;;;;;;;;;5036080;28;20187;-66
2023/03/15 09:42:56;;;;;;;13.73;9.30;;;;;;;;;;5053511;28;20170;-66
2023/03/15 09:45:27;;;;;;;22.43;14.17;;;;;;;;;;5035362;28;20222;-68
2023/03/15 09:47:59;;;;;;;16.00;12.00;;;;;;;;;;5052819;28;20544;-69
2023/03/15 09:50:33;;;;;;;16.03;9.33;;;;;;;;;;5035965;28;20198;-70
2023/03/15 09:53:05;;;;;;;14.60;9.27;;;;;;;;;;5053929;28;20189;-67
2023/03/15 09:55:32;;;;;;;21.23;10.23;;;;;;;;;;5053489;28;20249;-68
2023/03/15 09:57:57;;;;;;;13.53;8.97;;;;;;;;;;5056865;28;20170;-68
2023/03/15 10:00:38;;;;;;;15.07;9.30;;;;;;;;;;5057809;28;20696;-67
2023/03/15 10:03:08;;;;;;;17.53;9.67;;;;;;;;;;5057675;28;20183;-67
2023/03/15 10:05:34;;;;;;;12.83;8.93;;;;;;;;;;5057117;28;20232;-67
2023/03/15 10:08:00;;;;;;;14.60;8.97;;;;;;;;;;5057350;28;20190;-67
2023/03/15 10:10:35;;;;;;;13.77;8.80;;;;;;;;;;5039077;28;20228;-69
2023/03/15 10:13:28;;;;;;;12.80;8.37;;;;;;;;;;5056966;28;20224;-68
2023/03/15 10:16:03;;;;;;;13.27;8.73;;;;;;;;;;5020086;28;20301;-66
2023/03/15 10:18:34;;;;;;;14.50;8.10;;;;;;;;;;5039576;28;20201;-67
2023/03/15 10:21:05;;;;;;;13.20;7.87;;;;;;;;;;5058228;28;20524;-66
2023/03/15 10:23:51;;;;;;;13.63;8.23;;;;;;;;;;5039341;28;20173;-67
2023/03/15 10:26:20;;;;;;;13.30;7.03;;;;;;;;;;5040368;28;20268;-67
2023/03/15 10:28:46;;;;;;;13.70;7.97;;;;;;;;;;5057190;28;20265;-67
2023/03/15 10:31:16;;;;;;;10.17;7.43;;;;;;;;;;5057126;28;20186;-68
2023/03/15 10:33:43;;;;;;;10.53;6.93;;;;;;;;;;5038849;28;20282;-68
2023/03/15 10:36:20;;;;;;;11.53;7.00;;;;;;;;;;5056356;28;20302;-67
2023/03/15 10:38:47;;;;;;;10.33;7.20;;;;;;;;;;5056970;28;20194;-67
2023/03/15 10:41:14;;;;;;;20.37;8.43;;;;;;;;;;5057057;28;20181;-67
2023/03/15 10:43:41;;;;;;;10.90;6.33;;;;;;;;;;5039119;28;20644;-66
2023/03/15 10:46:11;;;;;;;11.47;6.50;;;;;;;;;;5055808;28;20240;-70
2023/03/15 10:48:38;;;;;;;13.90;5.37;;;;;;;;;;5055793;28;20252;-69
2023/03/15 10:51:06;;;;;;;13.40;5.57;;;;;;;;;;5038111;28;20186;-68
2023/03/15 10:53:32;;;;;;;11.67;5.90;;;;;;;;;;5056010;28;20175;-67
2023/03/15 10:56:04;;;;;;;10.97;5.53;;;;;;;;;;5037953;28;20635;-69
2023/03/15 10:58:41;;;;;;;11.17;4.80;;;;;;;;;;5056618;28;20155;-68
2023/03/15 11:01:10;;;;;;;15.23;5.63;;;;;;;;;;5038671;28;20264;-68
2023/03/15 11:03:37;;;;;;;10.27;4.60;;;;;;;;;;5056602;28;20546;-67
2023/03/15 11:06:17;;;;;;;9.53;3.60;;;;;;;;;;5038101;28;20221;-69
2023/03/15 11:08:43;;;;;;;7.43;3.43;;;;;;;;;;5054902;28;20224;-70
2023/03/15 11:11:09;;;;;;;9.93;4.30;;;;;;;;;;5055048;28;20183;-68
2023/03/15 11:13:36;;;;;;;6.27;4.40;;;;;;;;;;5055567;28;20206;-69
2023/03/15 11:16:08;;;;;;;9.10;4.37;;;;;;;;;;5055060;28;20206;-68
2023/03/15 11:18:57;;;;;;;9.73;5.27;;;;;;;;;;5054822;28;20166;-69
2023/03/15 11:21:27;;;;;;;10.73;4.43;;;;;;;;;;5024385;28;20282;-67
2023/03/15 11:23:54;;;;;;;10.37;3.63;;;;;;;;;;5054861;28;20150;-69
2023/03/15 11:26:21;;;;;;;10.17;4.43;;;;;;;;;;5054450;28;20206;-68
2023/03/15 11:29:08;;;;;;;8.87;4.30;;;;;;;;;;5036546;28;20183;-69
2023/03/15 11:31:35;;;;;;;6.30;3.23;;;;;;;;;;5036166;28;20563;-68
2023/03/15 11:34:27;;;;;;;4.50;2.37;;;;;;;;;;5036543;28;20186;-68
2023/03/15 11:36:56;;;;;;;4.67;2.30;;;;;;;;;;4999643;28;20233;-68
2023/03/15 11:39:34;;;;;;;6.50;2.40;;;;;;;;;;5036568;28;20178;-68
2023/03/15 11:42:02;;;;;;;8.63;2.97;;;;;;;;;;5036535;28;20182;-68
2023/03/15 11:44:37;;;;;;;6.30;2.57;;;;;;;;;;5036250;28;20204;-69
2023/03/15 11:47:05;;;;;;;6.80;2.77;;;;;;;;;;5036536;28;20655;-70
2023/03/15 11:49:36;;;;;;;7.03;2.67;;;;;;;;;;5037165;28;20181;-69
2023/03/15 11:52:03;;;;;;;9.43;2.60;;;;;;;;;;5059617;28;20181;-70
2023/03/15 11:54:30;;;;;;;8.83;2.83;;;;;;;;;;5063864;28;20202;-68
2023/03/15 11:57:01;;;;;;;7.57;2.47;;;;;;;;;;5061813;28;20201;-65
2023/03/15 11:59:29;;;;;;;5.30;3.03;;;;;;;;;;5060605;28;20163;-69
2023/03/15 12:02:00;;;;;;;6.30;2.67;;;;;;;;;;5054213;28;20553;-68
2023/03/15 12:04:32;;;;;;;6.87;3.40;;;;;;;;;;5035732;28;20239;-69
2023/03/15 12:07:02;;;;;;;3.60;2.03;;;;;;;;;;5053980;28;20672;-67
2023/03/15 12:09:31;;;;;;;4.07;2.07;;;;;;;;;;5053907;28;20184;-68
2023/03/15 12:11:58;;;;;;;4.53;2.33;;;;;;;;;;5053640;28;20257;-68
2023/03/15 12:14:32;;;;;;;5.47;2.40;;;;;;;;;;5053576;28;20189;-68
2023/03/15 12:17:16;;;;;;;9.23;2.47;;;;;;;;;;5053686;28;20206;-69
2023/03/15 12:19:43;;;;;;;8.53;2.40;;;;;;;;;;5052864;28;20257;-68
2023/03/15 12:22:15;;;;;;;7.00;2.40;;;;;;;;;;5053680;28;20257;-66
2023/03/15 12:24:44;;;;;;;6.63;2.67;;;;;;;;;;5053468;28;20222;-69
2023/03/15 12:27:14;;;;;;;6.00;2.60;;;;;;;;;;5053294;28;20190;-68
2023/03/15 12:29:42;;;;;;;7.00;2.43;;;;;;;;;;5053727;28;20182;-69
2023/03/15 12:32:12;;;;;;;8.30;2.47;;;;;;;;;;5053623;28;20223;-68
2023/03/15 12:34:49;;;;;;;4.63;2.60;;;;;;;;;;5053438;28;20194;-68
2023/03/15 12:37:18;;;;;;;6.43;2.60;;;;;;;;;;5053055;28;20259;-68
2023/03/15 12:39:46;;;;;;;6.23;2.47;;;;;;;;;;5053145;28;20201;-69
2023/03/15 12:42:14;;;;;;;5.17;2.30;;;;;;;;;;5053633;28;20175;-68
2023/03/15 12:44:43;;;;;;;5.47;2.40;;;;;;;;;;5053167;28;20202;-68
2023/03/15 12:47:10;;;;;;;5.23;2.37;;;;;;;;;;5053076;28;20185;-68
2023/03/15 12:49:36;;;;;;;5.60;2.30;;;;;;;;;;5053164;28;20192;-69
2023/03/15 12:52:12;;;;;;;5.53;2.60;;;;;;;;;;5053556;28;20178;-68
2023/03/15 12:54:46;;;;;;;5.23;2.40;;;;;;;;;;5053153;28;20197;-69
2023/03/15 12:57:13;;;;;;;6.13;2.80;;;;;;;;;;5035112;28;20633;-68
2023/03/15 12:59:54;;;;;;;6.57;2.50;;;;;;;;;;5053000;28;20182;-68
2023/03/15 13:02:30;;;;;;;9.90;2.67;;;;;;;;;;5053137;28;20185;-68
2023/03/15 13:05:15;;;;;;;5.60;2.70;;;;;;;;;;5052961;28;20288;-67
2023/03/15 13:07:55;;;;;;;6.43;2.90;;;;;;;;;;5052983;28;20175;-65
2023/03/15 13:10:32;;;;;;;5.50;2.33;;;;;;;;;;5035205;28;20648;-70
2023/03/15 13:13:07;;;;;;;4.03;2.37;;;;;;;;;;5053028;28;20170;-68
2023/03/15 13:15:58;;;;;;;6.80;2.90;;;;;;;;;;5053038;28;20237;-68
2023/03/15 13:18:26;;;;;;;3.87;2.00;;;;;;;;;;5052954;28;20166;-68
2023/03/15 13:21:11;;;;;;;4.80;1.90;;;;;;;;;;5053079;28;20182;-68
2023/03/15 13:23:37;;;;;;;4.20;1.80;;;;;;;;;;5053013;28;20174;-68
2023/03/15 13:26:06;;;;;;;4.87;1.90;;;;;;;;;;5053014;28;20202;-68
2023/03/15 13:28:36;;;;;;;6.83;2.80;;;;;;;;;;5053243;28;20719;-67
2023/03/15 13:31:11;;;;;;;4.40;1.93;;;;;;;;;;5035448;28;20227;-68
2023/03/15 13:33:37;;;;;;;6.20;2.23;;;;;;;;;;5056772;28;20215;-68
2023/03/15 13:36:14;;;;;;;4.80;1.87;;;;;;;;;;5056721;28;20210;-67
2023/03/15 13:38:42;;;;;;;4.07;1.90;;;;;;;;;;5056773;28;20170;-67
2023/03/15 13:41:20;;;;;;;4.73;2.10;;;;;;;;;;5056397;28;20178;-67
2023/03/15 13:43:47;;;;;;;3.70;2.17;;;;;;;;;;5038458;28;20178;-67
2023/03/15 13:46:14;;;;;;;5.30;2.10;;;;;;;;;;5056359;28;20202;-67
2023/03/15 13:48:41;;;;;;;6.77;2.40;;;;;;;;;;5056459;28;20603;-67
2023/03/15 13:51:07;;;;;;;4.07;2.33;;;;;;;;;;5056519;28;20635;-67
2023/03/15 13:53:34;;;;;;;5.53;2.20;;;;;;;;;;5057490;28;20206;-67
2023/03/15 13:56:00;;;;;;;11.83;6.50;;;;;;;;;;5057212;28;20218;-67
2023/03/15 13:58:26;;;;;;;2.90;2.13;;;;;;;;;;5056231;28;20174;-68
2023/03/15 14:01:00;;;;;;;6.20;2.20;;;;;;;;;;5038244;28;20179;-69
2023/03/15 14:03:27;;;;;;;4.00;2.37;;;;;;;;;;5056105;28;20179;-68
2023/03/15 14:05:54;;;;;;;7.00;3.83;;;;;;;;;;5055927;28;20225;-68
2023/03/15 14:08:29;;;;;;;6.90;1.80;;;;;;;;;;5056177;28;20182;-68
2023/03/15 14:10:59;;;;;;;4.40;2.10;;;;;;;;;;5038048;28;20186;-66
2023/03/15 14:13:27;;;;;;;4.87;1.80;;;;;;;;;;5055861;28;20697;-68
2023/03/15 14:15:58;;;;;;;3.37;1.97;;;;;;;;;;5055691;28;20529;-68
2023/03/15 14:18:25;;;;;;;5.40;2.07;;;;;;;;;;5055747;28;20548;-66
2023/03/15 14:20:58;;;;;;;3.17;2.17;;;;;;;;;;5055886;28;20206;-67
2023/03/15 14:23:25;;;;;;;4.97;2.00;;;;;;;;;;5055586;28;20527;-68
2023/03/15 14:25:56;;;;;;;6.43;2.23;;;;;;;;;;5037502;28;20202;-68
2023/03/15 14:28:23;;;;;;;2.50;2.00;;;;;;;;;;5055491;28;20183;-68
2023/03/15 14:30:57;;;;;;;4.97;1.90;;;;;;;;;;5037680;28;20201;-68
2023/03/15 14:33:40;;;;;;;3.80;1.87;;;;;;;;;;5055384;28;20178;-68
2023/03/15 14:36:08;;;;;;;3.10;2.13;;;;;;;;;;5055203;28;20255;-66